Ponteix, Canada
Current Conditions -  °F | °C
As of 6:00 AM on Friday 21 Nov 2014 (Local Time) from CYYN Reporting Station
Broken Clouds Broken Clouds  
Wind Chill: 24°   Ceiling: 13000
Heat Index: 36°   Visibility: 9mi
Dew Point: 28°   Wind: 22mph
Humidity: 75%   Direction: 260°W
Pressure: 29.5"   Gusts: 28mph
Location:  49.75°N, 107.48°W
Report Text: CYYN 211200Z AUTO 26019G24KT 9SM BKN130 BKN180 02/M02 A2950 RMK SLP020
Loading
Personal Weather Stations






























Interactive Weather Map New forecast layout! Learn more

10-Day Weather Forecast

Advertisements
Track Severe Weather on mobile